createdAt,value
2017-10-19T00:02:38.898Z,11.10
2017-10-19T00:05:49.125Z,11.00
2017-10-19T00:08:59.158Z,10.90
2017-10-19T00:12:09.261Z,10.90
2017-10-19T00:15:19.424Z,10.90
2017-10-19T00:18:29.509Z,10.90
2017-10-19T00:21:39.591Z,10.90
2017-10-19T00:24:49.378Z,10.80
2017-10-19T00:28:00.217Z,10.80
2017-10-19T00:31:10.839Z,10.70
2017-10-19T00:34:20.731Z,10.80
2017-10-19T00:37:31.716Z,10.70
2017-10-19T00:40:41.765Z,10.70
2017-10-19T00:43:51.788Z,10.70
2017-10-19T00:47:01.998Z,10.60
2017-10-19T00:50:12.078Z,10.60
2017-10-19T00:53:21.882Z,10.40
2017-10-19T00:56:31.624Z,10.40
2017-10-19T00:59:41.553Z,10.40
2017-10-19T01:02:52.114Z,10.30
2017-10-19T01:06:02.699Z,10.30
2017-10-19T01:09:13.121Z,10.30
2017-10-19T01:12:23.257Z,10.30
2017-10-19T01:15:33.191Z,10.30
2017-10-19T01:18:44.052Z,10.20
2017-10-19T01:21:54.411Z,10.10
2017-10-19T01:25:04.208Z,10.10
2017-10-19T01:28:14.321Z,10.10
2017-10-19T01:31:24.171Z,10.10
2017-10-19T01:34:34.181Z,10.10
2017-10-19T01:37:44.137Z,10.00
2017-10-19T01:40:54.576Z,10.00
2017-10-19T01:44:04.107Z,9.90
2017-10-19T01:47:14.696Z,9.90
2017-10-19T01:50:24.511Z,9.90
2017-10-19T01:53:34.526Z,9.80
2017-10-19T01:56:44.460Z,9.90
2017-10-19T01:59:54.460Z,9.80
2017-10-19T02:03:04.334Z,9.80
2017-10-19T02:06:14.374Z,9.80
2017-10-19T02:09:24.249Z,9.80
2017-10-19T02:12:35.102Z,9.80
2017-10-19T02:15:44.973Z,9.70
2017-10-19T02:18:55.719Z,9.60
2017-10-19T02:22:05.708Z,9.70
2017-10-19T02:25:15.534Z,9.70
2017-10-19T02:28:25.562Z,9.70
2017-10-19T02:31:35.727Z,9.60
2017-10-19T02:34:45.755Z,9.60
2017-10-19T02:37:55.697Z,9.50
2017-10-19T02:41:06.360Z,9.50
2017-10-19T02:44:16.802Z,9.50
2017-10-19T02:47:27.771Z,9.50
2017-10-19T02:50:37.561Z,9.40
2017-10-19T02:53:48.031Z,9.40
2017-10-19T02:56:57.687Z,9.40
2017-10-19T03:00:08.134Z,9.40
2017-10-19T03:03:18.343Z,9.40
2017-10-19T03:06:28.075Z,9.30
2017-10-19T03:09:37.959Z,9.30
2017-10-19T03:12:48.134Z,9.30
2017-10-19T03:15:58.098Z,9.30
2017-10-19T03:19:08.150Z,9.20
2017-10-19T03:22:18.417Z,9.30
2017-10-19T03:25:28.457Z,9.20
2017-10-19T03:28:38.325Z,9.20
2017-10-19T03:31:48.041Z,9.20
2017-10-19T03:34:58.031Z,9.10
2017-10-19T03:38:08.073Z,9.10
2017-10-19T03:41:32.330Z,9.00
2017-10-19T03:44:42.669Z,9.00
2017-10-19T03:47:52.555Z,9.00
2017-10-19T03:51:03.331Z,9.00
2017-10-19T03:57:49.889Z,9.00
2017-10-19T04:00:59.788Z,8.90
2017-10-19T04:04:09.961Z,8.90
2017-10-19T04:07:20.062Z,8.90
2017-10-19T04:10:29.786Z,8.90
2017-10-19T04:13:39.566Z,8.90
2017-10-19T04:16:49.888Z,8.90
2017-10-19T04:19:59.897Z,8.80
2017-10-19T04:23:09.825Z,8.80
2017-10-19T04:26:19.920Z,8.80
2017-10-19T04:29:30.982Z,8.80
2017-10-19T04:32:41.184Z,8.80
2017-10-19T04:35:51.426Z,8.80
2017-10-19T04:39:01.742Z,8.70
2017-10-19T04:42:11.689Z,8.70
2017-10-19T04:45:21.801Z,8.70
2017-10-19T04:48:33.132Z,8.60
2017-10-19T04:51:43.250Z,8.60
2017-10-19T04:54:53.131Z,8.60
2017-10-19T04:58:03.099Z,8.50
2017-10-19T05:01:13.134Z,8.60
2017-10-19T05:04:27.043Z,8.50
2017-10-19T05:07:36.934Z,8.50
2017-10-19T05:10:46.866Z,8.50
2017-10-19T05:13:57.799Z,8.40
2017-10-19T05:17:08.136Z,8.40
2017-10-19T05:20:17.933Z,8.40
2017-10-19T05:23:28.017Z,8.40
2017-10-19T05:26:37.921Z,8.40
2017-10-19T05:29:47.800Z,8.40
2017-10-19T05:32:57.751Z,8.30
2017-10-19T05:36:08.496Z,8.30
2017-10-19T05:39:18.992Z,8.30
2017-10-19T05:42:28.882Z,8.30
2017-10-19T05:45:38.743Z,8.30
2017-10-19T05:48:48.733Z,8.30
2017-10-19T05:51:58.750Z,8.30
2017-10-19T05:55:08.550Z,8.30
2017-10-19T05:58:19.980Z,8.30
2017-10-19T06:01:29.749Z,8.30
2017-10-19T06:04:40.476Z,8.30
2017-10-19T06:07:50.694Z,8.30
2017-10-19T06:11:00.678Z,8.30
2017-10-19T06:14:10.626Z,8.30
2017-10-19T06:17:31.841Z,8.30
2017-10-19T06:20:42.434Z,8.40
2017-10-19T06:23:52.464Z,8.40
2017-10-19T06:27:02.569Z,8.50
2017-10-19T06:30:12.395Z,8.60
2017-10-19T06:33:23.109Z,8.60
2017-10-19T06:36:33.353Z,8.60
2017-10-19T06:39:43.337Z,8.70
2017-10-19T06:42:53.986Z,8.80
2017-10-19T06:46:04.573Z,8.90
2017-10-19T06:49:14.970Z,8.90
2017-10-19T06:52:24.837Z,9.00
2017-10-19T06:55:34.648Z,9.10
2017-10-19T06:58:44.518Z,9.10
2017-10-19T07:01:54.680Z,9.20
2017-10-19T07:05:04.442Z,9.30
2017-10-19T07:08:14.463Z,9.40
2017-10-19T07:11:24.375Z,9.50
2017-10-19T07:14:34.221Z,9.60
2017-10-19T07:17:44.359Z,9.60
2017-10-19T07:20:54.962Z,9.80
2017-10-19T07:24:05.190Z,9.80
2017-10-19T07:27:15.521Z,9.90
2017-10-19T07:30:25.053Z,10.10
2017-10-19T07:33:35.511Z,10.10
2017-10-19T07:36:45.477Z,10.20
2017-10-19T07:39:55.577Z,10.30
2017-10-19T07:43:09.052Z,10.40
2017-10-19T07:46:21.286Z,10.70
2017-10-19T07:49:31.526Z,10.70
2017-10-19T07:52:41.395Z,10.90
2017-10-19T07:55:51.807Z,11.00
2017-10-19T07:59:02.706Z,11.10
2017-10-19T08:02:13.448Z,11.20
2017-10-19T08:05:23.341Z,11.30
2017-10-19T08:08:33.538Z,11.40
2017-10-19T08:11:43.334Z,11.50
2017-10-19T08:14:53.869Z,11.70
2017-10-19T08:18:09.199Z,11.80
2017-10-19T08:21:19.888Z,12.00
2017-10-19T08:24:31.192Z,12.10
2017-10-19T08:27:41.469Z,12.20
2017-10-19T08:30:52.438Z,12.30
2017-10-19T08:34:03.107Z,12.50
2017-10-19T08:37:13.328Z,12.60
2017-10-19T08:40:23.991Z,12.70
2017-10-19T08:43:34.598Z,12.90
2017-10-19T08:46:44.861Z,13.10
2017-10-19T08:49:55.464Z,13.40
2017-10-19T08:53:05.684Z,13.30
2017-10-19T08:56:15.847Z,13.50
2017-10-19T08:59:25.708Z,13.60
2017-10-19T09:02:35.750Z,13.70
2017-10-19T09:05:46.317Z,13.90
2017-10-19T09:08:56.682Z,14.00
2017-10-19T09:12:07.447Z,14.20
2017-10-19T09:15:17.377Z,14.30
2017-10-19T09:18:27.324Z,14.40
2017-10-19T09:21:37.476Z,14.50
2017-10-19T09:24:47.807Z,14.70
2017-10-19T09:27:58.024Z,14.90
2017-10-19T09:31:07.871Z,15.00
2017-10-19T09:34:18.502Z,15.30
2017-10-19T09:37:28.502Z,15.30
2017-10-19T09:40:38.497Z,15.40
2017-10-19T09:43:48.387Z,15.60
2017-10-19T09:46:58.513Z,15.80
2017-10-19T09:50:08.709Z,16.00
2017-10-19T09:53:18.766Z,16.10
2017-10-19T09:56:28.877Z,16.30
2017-10-19T09:59:38.918Z,16.20
2017-10-19T10:02:49.307Z,16.30
2017-10-19T10:05:59.526Z,16.60
2017-10-19T10:09:09.800Z,16.80
2017-10-19T10:12:19.867Z,16.80
2017-10-19T10:15:30.666Z,17.20
2017-10-19T10:18:40.609Z,17.10
2017-10-19T10:21:50.530Z,17.20
2017-10-19T10:25:00.206Z,17.30
2017-10-19T10:28:10.486Z,17.40
2017-10-19T10:31:20.465Z,17.40
2017-10-19T10:34:30.730Z,17.50
2017-10-19T10:37:40.924Z,17.60
2017-10-19T10:40:51.493Z,17.70
2017-10-19T10:44:01.728Z,17.70
2017-10-19T10:47:11.701Z,17.90
2017-10-19T10:50:21.646Z,17.80
2017-10-19T10:53:31.465Z,18.00
2017-10-19T10:56:41.411Z,18.00
2017-10-19T10:59:52.257Z,18.30
2017-10-19T11:03:02.578Z,18.30
2017-10-19T11:06:12.532Z,18.40
2017-10-19T11:09:22.542Z,18.40
2017-10-19T11:12:32.371Z,18.50
2017-10-19T11:15:42.190Z,18.60
2017-10-19T11:18:52.207Z,18.50
2017-10-19T11:22:02.916Z,18.70
2017-10-19T11:25:12.912Z,18.80
2017-10-19T11:28:22.966Z,18.80
2017-10-19T11:31:33.554Z,18.90
2017-10-19T11:34:43.586Z,18.80
2017-10-19T11:37:54.638Z,18.90
2017-10-19T11:41:04.912Z,18.90
2017-10-19T11:44:14.683Z,19.10
2017-10-19T11:47:24.471Z,19.10
2017-10-19T11:50:34.667Z,19.10
2017-10-19T11:53:45.260Z,19.40
2017-10-19T11:56:55.378Z,19.30
2017-10-19T12:00:05.011Z,19.50
2017-10-19T12:03:14.916Z,19.60
2017-10-19T12:06:25.034Z,19.70
2017-10-19T12:09:34.855Z,19.60
2017-10-19T12:12:44.589Z,19.90
2017-10-19T12:15:55.397Z,20.30
2017-10-19T12:19:05.636Z,20.20
2017-10-19T12:22:15.521Z,20.30
2017-10-19T12:25:25.508Z,20.30
2017-10-19T12:28:35.521Z,20.40
2017-10-19T12:31:45.361Z,20.50
2017-10-19T12:34:55.618Z,20.60
2017-10-19T12:38:07.089Z,20.70
2017-10-19T12:41:18.349Z,20.60
2017-10-19T12:44:28.651Z,20.70
2017-10-19T12:47:39.277Z,20.70
2017-10-19T12:50:50.052Z,20.60
2017-10-19T12:54:00.200Z,20.60
2017-10-19T12:57:11.031Z,20.60
2017-10-19T13:00:21.740Z,20.60
2017-10-19T13:03:31.883Z,20.60
2017-10-19T13:06:44.152Z,20.70
2017-10-19T13:09:57.642Z,20.70
2017-10-19T13:13:08.000Z,20.70
2017-10-19T13:16:19.738Z,20.70
2017-10-19T13:19:30.487Z,20.70
2017-10-19T13:22:40.877Z,20.70
2017-10-19T13:25:50.760Z,20.60
2017-10-19T13:29:01.520Z,20.60
2017-10-19T13:32:12.250Z,20.60
2017-10-19T13:35:22.948Z,20.60
2017-10-19T13:38:33.642Z,20.70
2017-10-19T13:41:44.364Z,20.70
2017-10-19T13:44:55.225Z,20.70
2017-10-19T13:48:05.086Z,20.80
2017-10-19T13:51:15.065Z,21.00
2017-10-19T13:54:25.701Z,21.10
2017-10-19T13:57:35.628Z,21.10
2017-10-19T14:00:46.788Z,21.30
2017-10-19T14:03:57.747Z,21.50
2017-10-19T14:07:08.637Z,21.40
2017-10-19T14:10:18.694Z,21.40
2017-10-19T14:13:29.217Z,21.20
2017-10-19T14:16:39.944Z,21.10
2017-10-19T14:19:49.707Z,21.00
2017-10-19T14:22:59.497Z,20.90
2017-10-19T14:26:09.509Z,21.00
2017-10-19T14:29:19.382Z,21.20
2017-10-19T14:32:30.041Z,20.80
2017-10-19T14:35:40.065Z,20.80
2017-10-19T14:38:49.985Z,20.60
2017-10-19T14:41:59.842Z,20.40
2017-10-19T14:45:09.782Z,20.40
2017-10-19T14:48:19.629Z,20.30
2017-10-19T14:51:29.485Z,20.20
2017-10-19T14:54:39.310Z,20.30
2017-10-19T14:57:49.969Z,20.20
2017-10-19T15:00:59.884Z,20.00
2017-10-19T15:04:09.744Z,19.70
2017-10-19T15:07:20.465Z,19.40
2017-10-19T15:10:30.863Z,19.40
2017-10-19T15:13:41.256Z,19.30
2017-10-19T15:16:51.625Z,19.10
2017-10-19T15:20:01.434Z,18.90
2017-10-19T15:23:11.357Z,18.80
2017-10-19T15:26:21.432Z,18.60
2017-10-19T15:29:32.166Z,18.50
2017-10-19T15:32:42.066Z,18.50
2017-10-19T15:35:52.636Z,18.30
2017-10-19T15:39:02.767Z,18.30
2017-10-19T15:42:12.745Z,18.20
2017-10-19T15:45:22.582Z,18.10
2017-10-19T15:48:32.579Z,18.10
2017-10-19T15:51:43.173Z,17.80
2017-10-19T15:54:53.656Z,17.80
2017-10-19T15:58:03.602Z,17.70
2017-10-19T16:01:14.576Z,17.40
2017-10-19T16:04:24.957Z,17.40
2017-10-19T16:07:34.878Z,17.20
2017-10-19T16:10:44.858Z,17.00
2017-10-19T16:13:54.710Z,16.80
2017-10-19T16:17:04.776Z,16.60
2017-10-19T16:20:15.107Z,16.30
2017-10-19T16:23:24.890Z,16.20
2017-10-19T16:26:34.954Z,16.20
2017-10-19T16:29:45.106Z,15.90
2017-10-19T16:32:54.890Z,15.60
2017-10-19T16:36:04.887Z,15.50
2017-10-19T16:39:14.924Z,15.50
2017-10-19T16:42:24.966Z,15.40
2017-10-19T16:45:34.925Z,15.30
2017-10-19T16:48:45.621Z,15.00
2017-10-19T16:51:55.767Z,15.00
2017-10-19T16:55:05.628Z,14.80
2017-10-19T16:58:15.406Z,14.60
2017-10-19T17:01:25.354Z,14.50
2017-10-19T17:04:35.521Z,14.30
2017-10-19T17:07:46.138Z,14.30
2017-10-19T17:10:57.010Z,14.20
2017-10-19T17:14:07.400Z,14.20
2017-10-19T17:17:17.970Z,14.30
2017-10-19T17:20:28.153Z,14.30
2017-10-19T17:23:37.967Z,14.20
2017-10-19T17:26:47.705Z,14.10
2017-10-19T17:29:57.597Z,14.10
2017-10-19T17:33:07.918Z,14.10
2017-10-19T17:36:18.502Z,14.20
2017-10-19T17:39:28.583Z,14.00
2017-10-19T17:42:38.595Z,14.10
2017-10-19T17:45:48.992Z,14.00
2017-10-19T17:49:00.408Z,13.90
2017-10-19T17:52:11.674Z,13.70
2017-10-19T17:55:22.522Z,13.80
2017-10-19T17:58:32.595Z,13.80
2017-10-19T18:01:42.745Z,13.90
2017-10-19T18:04:53.781Z,14.00
2017-10-19T18:08:03.374Z,13.90
2017-10-19T18:11:13.794Z,14.00
2017-10-19T18:14:23.875Z,13.90
2017-10-19T18:17:33.706Z,13.90
2017-10-19T18:20:43.701Z,13.90
2017-10-19T18:23:53.899Z,13.70
2017-10-19T18:27:04.574Z,13.70
2017-10-19T18:30:15.001Z,13.60
2017-10-19T18:33:24.934Z,13.70
2017-10-19T18:36:34.926Z,13.70
2017-10-19T18:39:45.697Z,13.50
2017-10-19T18:42:55.368Z,13.50
2017-10-19T18:46:05.448Z,13.40
2017-10-19T18:49:15.407Z,13.40
2017-10-19T18:52:25.360Z,13.60
2017-10-19T18:55:35.518Z,13.60
2017-10-19T18:58:45.233Z,13.60
2017-10-19T19:01:56.370Z,13.70
2017-10-19T19:05:06.530Z,13.70
2017-10-19T19:08:16.237Z,13.70
2017-10-19T19:11:26.235Z,13.80
2017-10-19T19:14:36.826Z,14.00
2017-10-19T19:17:47.150Z,14.00
2017-10-19T19:20:57.144Z,14.00
2017-10-19T19:24:06.896Z,14.10
2017-10-19T19:27:16.943Z,14.10
2017-10-19T19:30:27.115Z,14.10
2017-10-19T19:33:37.791Z,14.30
2017-10-19T19:36:48.113Z,14.30
2017-10-19T19:39:58.121Z,14.20
2017-10-19T19:43:08.110Z,14.20
2017-10-19T19:46:18.189Z,14.20
2017-10-19T19:49:28.913Z,14.10
2017-10-19T19:52:39.154Z,14.10
2017-10-19T19:55:49.138Z,14.10
2017-10-19T19:58:59.003Z,14.10
2017-10-19T20:02:08.854Z,14.20
2017-10-19T20:05:18.983Z,14.20
2017-10-19T20:08:28.879Z,14.30
2017-10-19T20:11:39.823Z,14.40
2017-10-19T20:14:49.999Z,14.40
2017-10-19T20:18:00.842Z,14.60
2017-10-19T20:21:10.913Z,14.60
2017-10-19T20:24:21.399Z,14.60
2017-10-19T20:27:32.520Z,14.70
2017-10-19T20:30:42.707Z,14.70
2017-10-19T20:33:53.393Z,14.70
2017-10-19T20:37:03.618Z,14.70
2017-10-19T20:40:13.463Z,14.80
2017-10-19T20:43:23.346Z,14.80
2017-10-19T20:46:33.547Z,14.80
2017-10-19T20:49:43.481Z,14.80
2017-10-19T20:52:53.441Z,14.80
2017-10-19T20:56:04.116Z,15.00
2017-10-19T20:59:13.893Z,15.00
2017-10-19T21:02:23.963Z,15.00
2017-10-19T21:05:33.889Z,15.00
2017-10-19T21:08:43.872Z,15.10
2017-10-19T21:11:54.866Z,15.00
2017-10-19T21:15:05.237Z,15.00
2017-10-19T21:18:15.424Z,15.00
2017-10-19T21:21:26.393Z,15.00
2017-10-19T21:24:37.906Z,14.90
2017-10-19T21:27:48.115Z,14.90
2017-10-19T21:30:57.923Z,14.90
2017-10-19T21:34:07.775Z,14.90
2017-10-19T21:37:17.698Z,14.90
2017-10-19T21:40:27.513Z,14.90
2017-10-19T21:43:37.525Z,14.90
2017-10-19T21:46:47.948Z,15.10
2017-10-19T21:49:58.093Z,15.00
2017-10-19T21:53:08.173Z,15.00
2017-10-19T21:56:18.842Z,14.90
2017-10-19T21:59:28.954Z,14.90
2017-10-19T22:02:38.921Z,14.80
2017-10-19T22:05:48.818Z,14.70
2017-10-19T22:08:58.747Z,14.60
2017-10-19T22:12:08.070Z,14.50
2017-10-19T22:15:18.524Z,14.40
2017-10-19T22:18:28.375Z,14.30
2017-10-19T22:21:38.366Z,14.30
2017-10-19T22:24:48.165Z,14.30
2017-10-19T22:27:58.111Z,14.10
2017-10-19T22:31:08.066Z,13.80
2017-10-19T22:34:18.038Z,13.80
2017-10-19T22:37:27.902Z,13.80
2017-10-19T22:40:37.801Z,13.60
2017-10-19T22:43:47.654Z,13.60
2017-10-19T22:46:58.456Z,13.50
2017-10-19T22:50:09.249Z,13.50
2017-10-19T22:53:19.822Z,13.60
2017-10-19T22:56:30.486Z,13.60
2017-10-19T22:59:40.630Z,13.50
2017-10-19T23:02:50.726Z,13.40
2017-10-19T23:06:00.586Z,13.40
2017-10-19T23:09:10.436Z,13.40
2017-10-19T23:12:20.450Z,13.40
2017-10-19T23:15:30.507Z,13.30
2017-10-19T23:18:41.275Z,13.30
2017-10-19T23:21:51.429Z,13.30
2017-10-19T23:25:01.219Z,13.30
2017-10-19T23:28:11.059Z,13.40
2017-10-19T23:31:21.099Z,13.50
2017-10-19T23:34:31.218Z,13.50
2017-10-19T23:37:41.956Z,13.60
2017-10-19T23:40:52.439Z,13.60
2017-10-19T23:44:03.425Z,13.70
2017-10-19T23:47:13.948Z,13.70
2017-10-19T23:50:23.791Z,13.80
2017-10-19T23:53:33.583Z,13.70
2017-10-19T23:56:43.419Z,13.60
2017-10-19T23:59:53.854Z,13.60
